Time;durP1;ratioP1;P1;durP2;ratioP2;P2;SDS_P1;SDS_P2;PMS_P1;PMS_P2;Temp;Humidity;BMP_temperature;BMP_pressure;BME280_temperature;BME280_humidity;BME280_pressure;Samples;Min_cycle;Max_cycle;Signal;HPM_P1;HPM_P2
2020/12/29 00:03:45;;;;;;;2.80;1.30;;;;;;;6.04;100.00;96272.92;4517078;78;28566;-79
2020/12/29 00:09:48;;;;;;;2.12;0.93;;;;;;;6.11;100.00;96278.78;4492309;79;28608;-79
2020/12/29 00:15:50;;;;;;;1.77;0.98;;;;;;;6.11;100.00;96256.11;4494658;78;28937;-82
2020/12/29 00:21:53;;;;;;;2.30;1.20;;;;;;;6.18;100.00;96253.67;4532173;78;28579;-80
2020/12/29 00:27:55;;;;;;;2.85;1.60;;;;;;;6.20;100.00;96244.33;4518419;78;28558;-80
2020/12/29 00:33:58;;;;;;;2.02;1.20;;;;;;;6.23;100.00;96230.99;4392145;80;28580;-83
2020/12/29 00:40:00;;;;;;;2.20;1.15;;;;;;;6.29;100.00;96219.21;4412346;80;28549;-83
2020/12/29 00:46:06;;;;;;;2.65;1.40;;;;;;;6.31;100.00;96193.60;4399333;81;28655;-80
2020/12/29 00:52:08;;;;;;;3.20;1.57;;;;;;;6.35;100.00;96191.45;4405220;80;28724;-83
2020/12/29 00:58:12;;;;;;;2.42;1.57;;;;;;;6.51;100.00;96196.73;4315813;82;28613;-83
2020/12/29 01:04:15;;;;;;;1.15;0.85;;;;;;;6.47;100.00;96179.65;4324072;81;28594;-83
2020/12/29 01:10:17;;;;;;;2.60;1.35;;;;;;;6.51;100.00;96184.72;4338830;81;28583;-83
2020/12/29 01:16:39;;;;;;;2.17;1.30;;;;;;;6.59;100.00;96171.33;4352329;81;28611;-82
2020/12/29 01:22:41;;;;;;;2.80;1.40;;;;;;;6.66;100.00;96179.80;4330440;81;28543;-82
2020/12/29 01:28:43;;;;;;;1.50;0.90;;;;;;;6.68;100.00;96181.13;4399859;80;28567;-82
2020/12/29 01:34:46;;;;;;;2.40;1.50;;;;;;;6.79;100.00;96155.70;4339015;81;28598;-83
2020/12/29 01:40:48;;;;;;;2.98;1.47;;;;;;;6.84;100.00;96155.68;4440274;80;28561;-82
2020/12/29 01:46:50;;;;;;;2.27;1.55;;;;;;;6.81;100.00;96153.55;4449727;80;28605;-82
2020/12/29 01:53:00;;;;;;;2.65;1.32;;;;;;;6.78;100.00;96146.09;4405575;80;28620;-83
2020/12/29 01:59:10;;;;;;;1.87;1.20;;;;;;;6.72;100.00;96144.00;4398687;81;28590;-79
2020/12/29 02:05:12;;;;;;;2.75;1.90;;;;;;;6.63;100.00;96150.47;4398345;81;28584;-80
2020/12/29 02:11:14;;;;;;;1.95;1.40;;;;;;;6.64;100.00;96147.25;4394013;81;28570;-80
2020/12/29 02:17:17;;;;;;;1.82;1.37;;;;;;;6.62;100.00;96150.73;4398267;81;28621;-80
2020/12/29 02:23:19;;;;;;;1.95;1.25;;;;;;;6.57;100.00;96132.10;4383157;81;28555;-79
2020/12/29 02:29:21;;;;;;;1.77;0.80;;;;;;;6.54;100.00;96130.77;4373205;81;28613;-80
2020/12/29 02:35:24;;;;;;;1.87;1.17;;;;;;;6.57;100.00;96114.20;4399265;80;28541;-82
2020/12/29 02:41:26;;;;;;;3.08;1.70;;;;;;;6.66;100.00;96119.20;4389025;80;28576;-88
2020/12/29 02:47:28;;;;;;;2.83;1.65;;;;;;;6.68;100.00;96094.36;4351912;81;28543;-81
2020/12/29 02:53:30;;;;;;;2.47;1.45;;;;;;;6.67;100.00;96095.99;4376991;81;28670;-81
2020/12/29 02:59:32;;;;;;;2.25;1.00;;;;;;;6.68;100.00;96114.38;4343458;81;28587;-83
2020/12/29 03:05:34;;;;;;;1.67;1.37;;;;;;;6.74;100.00;96121.82;4353386;81;28590;-81
2020/12/29 03:11:37;;;;;;;4.20;2.02;;;;;;;6.84;100.00;96120.97;4371573;81;28929;-80
2020/12/29 03:17:39;;;;;;;4.25;2.35;;;;;;;6.79;100.00;96105.77;4353629;81;28551;-79
2020/12/29 03:23:41;;;;;;;2.00;1.25;;;;;;;6.69;100.00;96072.48;4335848;81;28591;-79
2020/12/29 03:29:43;;;;;;;1.90;1.35;;;;;;;6.67;100.00;96045.27;4323099;82;28583;-82
2020/12/29 03:35:45;;;;;;;2.42;1.10;;;;;;;6.55;100.00;96057.07;4346159;81;28574;-82
2020/12/29 03:41:47;;;;;;;1.72;0.98;;;;;;;6.52;100.00;96049.62;4340927;81;28579;-82
2020/12/29 03:47:49;;;;;;;2.35;1.35;;;;;;;6.47;100.00;96015.51;4323869;81;28551;-83
2020/12/29 03:53:53;;;;;;;0.80;0.50;;;;;;;6.43;100.00;96016.59;4345523;81;28640;-83
2020/12/29 03:59:55;;;;;;;1.40;0.40;;;;;;;6.40;100.00;96009.97;4390939;81;28579;-83
2020/12/29 04:05:57;;;;;;;0.93;0.50;;;;;;;6.37;100.00;96009.17;4378103;81;28542;-83
2020/12/29 04:12:01;;;;;;;0.13;0.10;;;;;;;6.45;100.00;96010.99;4343585;81;28581;-80
2020/12/29 04:18:03;;;;;;;0.53;0.30;;;;;;;6.56;100.00;96000.48;4395896;81;28622;-82
2020/12/29 04:24:05;;;;;;;0.30;0.20;;;;;;;6.65;100.00;96001.48;4399161;79;28603;-83
2020/12/29 04:30:09;;;;;;;0.30;0.15;;;;;;;6.66;100.00;95998.26;4370674;81;28589;-82
2020/12/29 04:36:12;;;;;;;0.85;0.20;;;;;;;6.65;100.00;95992.66;4379800;81;28566;-83
2020/12/29 04:42:14;;;;;;;0.40;0.25;;;;;;;6.68;100.00;96000.13;4307560;82;28580;-81
2020/12/29 04:48:17;;;;;;;0.25;0.17;;;;;;;6.70;100.00;96018.00;4399949;81;28638;-81
2020/12/29 04:54:20;;;;;;;0.28;0.10;;;;;;;6.66;100.00;96043.13;4392711;81;28591;-81
2020/12/29 05:00:25;;;;;;;0.47;0.20;;;;;;;6.65;100.00;96041.53;4356355;81;28567;-81
2020/12/29 05:06:27;;;;;;;0.20;0.10;;;;;;;6.69;100.00;96043.11;4321457;81;28577;-81
2020/12/29 05:12:30;;;;;;;0.10;0.10;;;;;;;6.75;100.00;96058.55;4367567;81;28574;-82
2020/12/29 05:18:33;;;;;;;0.55;0.10;;;;;;;6.87;100.00;96073.66;4347340;81;28539;-82
2020/12/29 05:24:35;;;;;;;0.40;0.08;;;;;;;6.89;100.00;96084.85;4323468;81;28582;-82
2020/12/29 05:30:39;;;;;;;0.62;0.15;;;;;;;6.90;100.00;96079.77;4323642;81;28598;-81
2020/12/29 05:36:41;;;;;;;0.62;0.23;;;;;;;6.84;100.00;96089.70;4338581;81;28567;-81
2020/12/29 05:42:47;;;;;;;0.20;0.10;;;;;;;6.83;100.00;96110.02;4327891;81;28602;-81
2020/12/29 05:48:55;;;;;;;0.25;0.20;;;;;;;6.76;100.00;96109.53;4352255;81;28594;-81
2020/12/29 05:54:57;;;;;;;0.80;0.28;;;;;;;6.75;100.00;96130.64;4342821;80;28572;-81
2020/12/29 06:01:01;;;;;;;0.93;0.40;;;;;;;6.79;100.00;96138.34;4360733;81;28557;-83
2020/12/29 06:07:05;;;;;;;0.60;0.30;;;;;;;6.73;100.00;96132.24;4330878;81;28601;-83
2020/12/29 06:13:07;;;;;;;1.35;0.55;;;;;;;6.68;100.00;96133.07;4292284;82;28612;-84
2020/12/29 06:19:28;;;;;;;1.82;0.78;;;;;;;6.58;100.00;96159.05;4251463;84;28584;-83
2020/12/29 06:25:36;;;;;;;2.25;0.50;;;;;;;6.50;100.00;96173.23;4252224;84;28567;-82
2020/12/29 06:31:38;;;;;;;1.52;0.60;;;;;;;6.53;100.00;96190.58;4252362;84;28556;-82
2020/12/29 06:38:13;;;;;;;2.08;1.00;;;;;;;6.61;100.00;96208.69;4251439;84;28592;-82
2020/12/29 06:44:16;;;;;;;1.75;0.90;;;;;;;6.55;100.00;96225.23;4306760;82;28598;-82
2020/12/29 06:50:26;;;;;;;1.17;0.55;;;;;;;6.52;100.00;96257.05;4358194;82;28592;-82
2020/12/29 06:56:28;;;;;;;1.00;0.50;;;;;;;6.50;100.00;96271.99;4330422;81;28608;-82
2020/12/29 07:02:36;;;;;;;1.62;0.40;;;;;;;6.57;100.00;96301.06;4316225;82;28568;-84
2020/12/29 07:08:39;;;;;;;0.50;0.20;;;;;;;6.61;100.00;96335.50;4316488;81;28583;-83
2020/12/29 07:14:41;;;;;;;1.02;0.40;;;;;;;6.55;100.00;96389.97;4312618;82;28619;-84
2020/12/29 07:20:48;;;;;;;0.95;0.40;;;;;;;6.49;100.00;96410.53;4314043;82;28591;-84
2020/12/29 07:26:57;;;;;;;1.20;0.60;;;;;;;6.49;100.00;96442.56;4367577;81;28564;-82
2020/12/29 07:33:04;;;;;;;1.75;0.57;;;;;;;6.41;100.00;96471.13;4263838;82;28604;-83
2020/12/29 07:39:12;;;;;;;0.75;0.42;;;;;;;6.43;100.00;96494.34;4247153;82;28575;-81
2020/12/29 07:45:14;;;;;;;1.27;0.68;;;;;;;6.43;100.00;96529.59;4309653;82;28566;-80
2020/12/29 07:51:16;;;;;;;1.12;0.53;;;;;;;6.45;100.00;96556.26;4309631;82;28566;-82
2020/12/29 07:57:18;;;;;;;1.12;0.57;;;;;;;6.38;100.00;96571.75;4295787;82;28618;-79
2020/12/29 08:03:20;;;;;;;1.95;0.50;;;;;;;6.60;100.00;96585.39;4392641;81;28564;-80
2020/12/29 08:09:22;;;;;;;4.30;0.70;;;;;;;6.82;100.00;96601.14;4396534;81;28555;-79
2020/12/29 08:15:30;;;;;;;1.30;0.50;;;;;;;6.92;100.00;96604.36;4393913;81;28551;-85
2020/12/29 08:21:38;;;;;;;1.20;0.70;;;;;;;7.02;100.00;96633.75;4343351;81;28581;-82
2020/12/29 08:27:43;;;;;;;1.60;0.65;;;;;;;7.32;100.00;96657.52;4272450;82;28597;-84
2020/12/29 08:33:47;;;;;;;1.52;0.80;;;;;;;7.39;100.00;96666.60;4294475;82;28553;-87
2020/12/29 08:40:08;;;;;;;2.17;1.00;;;;;;;7.02;100.00;96689.04;4318384;82;28610;-84
2020/12/29 08:46:20;;;;;;;1.80;0.72;;;;;;;6.87;100.00;96699.98;4369454;79;28567;-78
2020/12/29 08:52:31;;;;;;;1.42;0.80;;;;;;;6.68;100.00;96723.17;4317340;81;28633;-85
2020/12/29 08:58:33;;;;;;;2.02;0.90;;;;;;;6.45;100.00;96747.66;4369958;79;28598;-85
2020/12/29 09:04:40;;;;;;;1.70;0.95;;;;;;;6.37;100.00;96763.09;4282082;81;28596;-84
2020/12/29 09:10:43;;;;;;;2.17;1.00;;;;;;;6.28;100.00;96768.66;4357518;80;28537;-83
2020/12/29 09:17:03;;;;;;;1.40;0.85;;;;;;;6.21;99.69;96776.89;4385029;80;28611;-85
2020/12/29 09:23:15;;;;;;;2.37;0.93;;;;;;;6.27;100.00;96775.88;4349506;80;28578;-83
2020/12/29 09:29:20;;;;;;;2.65;0.80;;;;;;;6.37;99.83;96802.34;4384931;80;28653;-81
2020/12/29 09:35:28;;;;;;;2.08;0.80;;;;;;;6.41;98.67;96842.95;4386028;80;28547;-86
2020/12/29 09:41:30;;;;;;;1.85;0.85;;;;;;;6.47;98.23;96854.45;4391907;80;28548;-86
2020/12/29 09:47:35;;;;;;;2.15;0.68;;;;;;;6.45;95.47;96858.44;4366395;80;28940;-86
2020/12/29 09:53:37;;;;;;;1.47;0.60;;;;;;;6.46;96.53;96868.05;4380055;80;28639;-86
2020/12/29 09:59:39;;;;;;;1.67;0.78;;;;;;;6.52;95.70;96872.38;4374452;80;28552;-85
2020/12/29 10:05:43;;;;;;;1.15;0.60;;;;;;;6.55;93.26;96872.63;4375916;80;28587;-87
2020/12/29 10:11:45;;;;;;;1.00;0.50;;;;;;;6.61;92.51;96906.87;4302660;81;28603;-86
2020/12/29 10:17:47;;;;;;;1.98;0.68;;;;;;;6.65;91.05;96913.81;4343772;80;28601;-86
2020/12/29 10:23:49;;;;;;;3.27;0.90;;;;;;;6.72;88.36;96914.91;4358637;81;28624;-86
2020/12/29 10:29:51;;;;;;;3.65;0.80;;;;;;;6.77;88.49;96941.66;4349363;80;28548;-84
2020/12/29 10:35:54;;;;;;;3.27;0.62;;;;;;;6.90;88.40;96947.88;4333615;80;28644;-87
2020/12/29 10:41:56;;;;;;;1.25;0.50;;;;;;;6.95;85.52;96951.11;4345834;80;28572;-86
2020/12/29 10:47:58;;;;;;;5.75;0.65;;;;;;;7.01;85.08;96959.44;4342204;80;28630;-87
2020/12/29 10:54:00;;;;;;;2.37;0.70;;;;;;;7.08;84.16;96969.89;4353652;80;28648;-87
2020/12/29 11:00:04;;;;;;;1.40;0.50;;;;;;;7.14;85.22;96980.07;4375292;80;28577;-88
2020/12/29 11:06:20;;;;;;;1.98;0.60;;;;;;;7.23;83.26;96980.64;4375506;80;28639;-85
2020/12/29 11:12:23;;;;;;;1.72;0.40;;;;;;;7.30;80.55;96984.44;4355021;80;28608;-84
2020/12/29 11:18:25;;;;;;;1.32;0.60;;;;;;;7.34;80.76;96988.70;4370646;80;28578;-85
2020/12/29 11:24:33;;;;;;;1.20;0.53;;;;;;;7.38;77.56;96983.92;4400513;81;28611;-84
2020/12/29 11:30:51;;;;;;;1.52;0.50;;;;;;;7.43;77.01;97000.52;4371195;81;28592;-86
2020/12/29 11:36:53;;;;;;;1.82;0.40;;;;;;;7.50;78.51;97023.82;4322714;82;28579;-86
2020/12/29 11:42:55;;;;;;;2.62;0.57;;;;;;;7.52;77.85;97019.01;4390658;80;28569;-85
2020/12/29 11:48:57;;;;;;;0.90;0.40;;;;;;;7.53;77.29;97031.86;4394544;81;28547;-83
2020/12/29 11:54:59;;;;;;;1.20;0.60;;;;;;;7.57;79.50;97048.20;4384851;80;28574;-83
2020/12/29 12:01:01;;;;;;;0.88;0.28;;;;;;;7.70;78.56;97066.95;4384202;80;28586;-83
2020/12/29 12:07:10;;;;;;;1.35;0.47;;;;;;;7.74;77.10;97064.83;4383634;80;28590;-83
2020/12/29 12:13:11;;;;;;;1.75;0.60;;;;;;;7.79;75.88;97072.89;4298760;81;28566;-83
2020/12/29 12:19:15;;;;;;;1.15;0.50;;;;;;;7.71;76.15;97071.27;4385931;80;28652;-82
2020/12/29 12:25:17;;;;;;;1.12;0.50;;;;;;;7.77;74.79;97076.89;4363234;80;28638;-84
2020/12/29 12:31:21;;;;;;;2.62;0.80;;;;;;;7.80;73.27;97089.73;4387740;80;28571;-84
2020/12/29 12:37:23;;;;;;;2.47;0.78;;;;;;;7.88;73.81;97084.44;4392544;80;28580;-84
2020/12/29 12:43:25;;;;;;;1.15;0.50;;;;;;;7.82;76.43;97090.30;4392718;80;28549;-83
2020/12/29 12:49:27;;;;;;;1.62;0.80;;;;;;;7.85;76.27;97091.11;4389242;80;28608;-83
2020/12/29 12:55:29;;;;;;;1.27;0.72;;;;;;;7.78;77.39;97106.59;4382003;80;28552;-82
2020/12/29 13:01:31;;;;;;;3.47;1.15;;;;;;;7.71;79.24;97122.88;4370620;80;28545;-83
2020/12/29 13:07:33;;;;;;;2.33;0.93;;;;;;;7.67;78.78;97129.27;4313636;81;28541;-84
2020/12/29 13:13:35;;;;;;;1.82;0.75;;;;;;;7.66;74.96;97138.91;4310122;81;28559;-84
2020/12/29 13:19:37;;;;;;;2.72;0.80;;;;;;;7.69;73.65;97155.77;4303031;81;28575;-85
2020/12/29 13:25:39;;;;;;;3.17;0.70;;;;;;;7.55;74.43;97176.81;4400279;80;28561;-82
2020/12/29 13:31:42;;;;;;;2.10;0.80;;;;;;;7.39;72.59;97177.23;4384245;80;28583;-84
2020/12/29 13:37:47;;;;;;;1.45;0.60;;;;;;;7.26;72.92;97199.84;4392938;80;28557;-89
2020/12/29 13:43:49;;;;;;;1.42;0.85;;;;;;;7.11;73.82;97217.89;4394213;80;28577;-84
2020/12/29 13:49:51;;;;;;;1.42;0.70;;;;;;;6.96;76.17;97223.38;4393685;80;28557;-83
2020/12/29 13:55:53;;;;;;;1.70;0.70;;;;;;;6.83;76.59;97233.14;4393471;80;28604;-80
2020/12/29 14:01:56;;;;;;;1.47;0.72;;;;;;;6.70;78.02;97253.02;4404665;80;28548;-81
2020/12/29 14:07:58;;;;;;;2.52;0.90;;;;;;;6.56;77.46;97251.26;4386625;80;28632;-84
2020/12/29 14:14:00;;;;;;;2.47;1.00;;;;;;;6.45;79.36;97266.88;4374292;81;28632;-79
2020/12/29 14:20:04;;;;;;;4.30;1.10;;;;;;;6.31;80.28;97279.26;4398384;80;28596;-80
2020/12/29 14:26:13;;;;;;;2.30;0.95;;;;;;;6.21;82.00;97281.79;4376289;80;28591;-79
2020/12/29 14:32:19;;;;;;;2.95;1.00;;;;;;;6.06;83.36;97295.17;4372983;80;28600;-81
2020/12/29 14:38:21;;;;;;;3.45;1.30;;;;;;;5.88;84.10;97305.55;4354414;81;28573;-80
2020/12/29 14:44:23;;;;;;;2.98;1.20;;;;;;;5.70;85.45;97309.28;4332456;81;28602;-80
2020/12/29 14:50:25;;;;;;;2.00;1.15;;;;;;;5.55;87.20;97319.16;4299662;83;28610;-80
2020/12/29 14:56:34;;;;;;;2.17;0.82;;;;;;;5.34;88.05;97321.48;4330227;80;28591;-80
2020/12/29 15:02:36;;;;;;;2.27;1.07;;;;;;;5.12;89.16;97326.15;4367439;81;28593;-80
2020/12/29 15:08:38;;;;;;;2.52;1.15;;;;;;;4.97;89.75;97327.17;4385286;81;28607;-80
2020/12/29 15:14:40;;;;;;;4.37;1.47;;;;;;;4.92;89.92;97325.22;4403407;81;28612;-79
2020/12/29 15:20:48;;;;;;;5.95;2.00;;;;;;;4.96;90.20;97322.39;4344075;80;28618;-81
2020/12/29 15:26:50;;;;;;;2.80;1.17;;;;;;;4.83;91.09;97315.98;4470466;80;28608;-78
2020/12/29 15:32:52;;;;;;;4.60;1.30;;;;;;;4.82;92.75;97335.16;4470578;80;28628;-79
2020/12/29 15:38:55;;;;;;;4.72;1.65;;;;;;;4.60;93.76;97325.14;4470605;79;28608;-80
2020/12/29 15:44:57;;;;;;;4.53;1.70;;;;;;;4.50;95.94;97328.09;4470780;80;28551;-79
2020/12/29 15:50:59;;;;;;;7.25;1.90;;;;;;;4.35;98.08;97331.23;4470709;79;28598;-80
2020/12/29 15:57:02;;;;;;;5.55;1.85;;;;;;;4.30;98.74;97334.59;4470549;80;28570;-79
2020/12/29 16:03:05;;;;;;;4.75;1.45;;;;;;;4.32;98.77;97351.13;4410946;80;28577;-79
2020/12/29 16:09:07;;;;;;;4.60;1.67;;;;;;;4.18;99.88;97368.66;4312814;82;28612;-80
2020/12/29 16:15:12;;;;;;;4.28;1.72;;;;;;;4.19;100.00;97378.25;4311024;82;28580;-80
2020/12/29 16:21:14;;;;;;;5.22;1.82;;;;;;;4.16;99.52;97398.67;4310305;81;28615;-80
2020/12/29 16:27:16;;;;;;;6.90;2.37;;;;;;;4.05;100.00;97404.26;4389088;80;28587;-80
2020/12/29 16:33:23;;;;;;;4.25;1.75;;;;;;;3.86;100.00;97410.19;4388237;80;28576;-79
2020/12/29 16:39:24;;;;;;;7.65;2.42;;;;;;;3.80;100.00;97422.25;4388774;80;28589;-79
2020/12/29 16:45:26;;;;;;;7.35;2.12;;;;;;;3.73;100.00;97428.47;4367082;80;28610;-79
2020/12/29 16:51:28;;;;;;;5.40;1.92;;;;;;;3.72;100.00;97436.15;4304003;80;28570;-79
2020/12/29 16:57:31;;;;;;;4.95;2.22;;;;;;;3.80;100.00;97439.03;4387954;80;28589;-79
2020/12/29 17:03:33;;;;;;;5.62;2.35;;;;;;;3.89;100.00;97446.15;4412533;80;28598;-80
2020/12/29 17:09:38;;;;;;;5.83;2.77;;;;;;;4.03;100.00;97448.10;4342263;81;28581;-81
2020/12/29 17:15:40;;;;;;;4.83;2.22;;;;;;;4.13;100.00;97452.84;4395803;81;28595;-81
2020/12/29 17:21:42;;;;;;;6.55;2.83;;;;;;;4.02;100.00;97469.87;4373554;81;28552;-80
2020/12/29 17:27:44;;;;;;;12.98;2.92;;;;;;;3.78;100.00;97474.84;4370190;81;28592;-79
2020/12/29 17:33:48;;;;;;;4.75;2.47;;;;;;;3.60;100.00;97479.16;4375187;81;28551;-80
2020/12/29 17:39:50;;;;;;;6.55;2.70;;;;;;;3.70;100.00;97487.41;4388719;80;28557;-82
2020/12/29 17:45:53;;;;;;;6.78;2.65;;;;;;;3.73;100.00;97488.81;4359416;80;28566;-92
2020/12/29 17:51:56;;;;;;;5.85;2.33;;;;;;;3.73;100.00;97508.75;4274276;82;28553;-90
2020/12/29 17:58:02;;;;;;;5.55;2.50;;;;;;;3.79;100.00;97529.09;4386496;80;28593;-88
2020/12/29 18:04:05;;;;;;;;;;;;;;;3.79;100.00;97539.73;4375017;80;28583;-90
2020/12/29 18:10:08;;;;;;;7.05;2.90;;;;;;;3.71;100.00;97548.83;4398828;80;20236;-88
2020/12/29 18:16:11;;;;;;;7.78;3.27;;;;;;;3.89;100.00;97559.16;4379967;80;28545;-81
2020/12/29 18:22:13;;;;;;;9.48;2.90;;;;;;;4.00;100.00;97566.88;4375560;80;28563;-89
2020/12/29 18:28:15;;;;;;;6.80;2.50;;;;;;;3.95;100.00;97579.52;4377004;80;28563;-91
2020/12/29 18:34:19;;;;;;;6.30;2.70;;;;;;;3.96;100.00;97597.63;4355208;80;28607;-87
2020/12/29 18:40:21;;;;;;;5.65;2.37;;;;;;;4.01;100.00;97601.23;4390168;80;28553;-85
2020/12/29 18:46:24;;;;;;;8.35;3.40;;;;;;;4.19;100.00;97612.36;4357232;80;28587;-85
2020/12/29 18:52:26;;;;;;;5.28;2.72;;;;;;;4.33;100.00;97615.66;4380497;80;28579;-84
2020/12/29 18:58:30;;;;;;;6.42;2.52;;;;;;;4.37;100.00;97632.50;4377263;80;28656;-86
2020/12/29 19:04:32;;;;;;;5.85;1.95;;;;;;;4.10;100.00;97631.52;4365020;80;28646;-84
2020/12/29 19:10:34;;;;;;;3.75;1.87;;;;;;;4.15;100.00;97640.45;4355468;81;28595;-83
2020/12/29 19:16:37;;;;;;;3.15;1.52;;;;;;;4.19;100.00;97654.92;4356343;80;28597;-87
2020/12/29 19:22:39;;;;;;;4.55;1.70;;;;;;;4.41;100.00;97673.61;4385216;80;28629;-82
2020/12/29 19:28:44;;;;;;;4.87;1.90;;;;;;;4.47;100.00;97682.00;4336739;81;28558;-86
2020/12/29 19:34:47;;;;;;;;;;;;;;;4.54;100.00;97704.03;4364160;81;28571;-84
2020/12/29 19:40:49;;;;;;;3.37;1.55;;;;;;;4.69;100.00;97702.30;4353779;81;20191;-86
2020/12/29 19:46:54;;;;;;;3.22;1.47;;;;;;;4.76;100.00;97702.20;4354512;80;28570;-85
2020/12/29 19:52:57;;;;;;;4.28;1.77;;;;;;;4.75;100.00;97709.91;4350066;81;28564;-84
2020/12/29 19:59:01;;;;;;;4.75;1.90;;;;;;;4.73;100.00;97717.31;4354132;80;28575;-84
2020/12/29 20:05:04;;;;;;;6.83;2.65;;;;;;;4.88;100.00;97740.88;4373792;80;28556;-82
2020/12/29 20:11:06;;;;;;;8.58;2.90;;;;;;;5.08;100.00;97735.78;4369843;80;28572;-84
2020/12/29 20:17:10;;;;;;;6.10;2.45;;;;;;;5.17;100.00;97741.09;4370222;80;28627;-85
2020/12/29 20:23:12;;;;;;;6.60;2.17;;;;;;;5.18;100.00;97736.55;4353855;80;28554;-84
2020/12/29 20:29:16;;;;;;;3.02;1.47;;;;;;;5.15;100.00;97742.64;4331804;81;28561;-86
2020/12/29 20:35:19;;;;;;;4.47;1.30;;;;;;;5.18;100.00;97747.21;4371750;80;28555;-84
2020/12/29 20:41:21;;;;;;;2.10;1.07;;;;;;;5.30;100.00;97742.20;4364967;80;28575;-84
2020/12/29 20:47:24;;;;;;;2.35;0.82;;;;;;;5.37;100.00;97734.64;4370297;81;28564;-81
2020/12/29 20:53:34;;;;;;;2.62;1.00;;;;;;;5.42;100.00;97724.91;4343465;80;28567;-82
2020/12/29 20:59:41;;;;;;;2.50;0.90;;;;;;;5.50;100.00;97726.42;4315045;80;28562;-81
2020/12/29 21:06:06;;;;;;;2.92;1.00;;;;;;;5.43;100.00;97729.70;4342932;81;28548;-83
2020/12/29 21:12:26;;;;;;;1.98;0.75;;;;;;;5.37;100.00;97738.64;4334197;81;28586;-82
2020/12/29 21:18:29;;;;;;;2.25;1.20;;;;;;;5.31;100.00;97741.70;4395533;81;28577;-84
2020/12/29 21:24:31;;;;;;;3.12;1.10;;;;;;;5.24;100.00;97753.77;4382871;80;28583;-83
2020/12/29 21:30:36;;;;;;;2.27;1.10;;;;;;;5.13;100.00;97762.55;4364748;81;34976;-84
2020/12/29 21:36:38;;;;;;;2.55;1.20;;;;;;;5.01;100.00;97758.53;4322905;81;28543;-83
2020/12/29 21:42:40;;;;;;;3.52;1.50;;;;;;;5.15;100.00;97762.63;4318462;81;28648;-80
2020/12/29 21:48:43;;;;;;;2.83;0.98;;;;;;;5.33;100.00;97754.78;4315658;82;28577;-81
2020/12/29 21:54:46;;;;;;;1.20;0.50;;;;;;;5.38;100.00;97754.38;4387730;80;28552;-80
2020/12/29 22:00:51;;;;;;;1.10;0.50;;;;;;;5.51;100.00;97750.70;4330905;81;28598;-82
2020/12/29 22:06:53;;;;;;;1.20;0.50;;;;;;;5.67;100.00;97757.72;4329132;82;28607;-78
2020/12/29 22:12:55;;;;;;;1.10;0.60;;;;;;;5.85;100.00;97767.50;4325225;81;28628;-80
2020/12/29 22:18:57;;;;;;;1.62;0.55;;;;;;;6.04;100.00;97776.22;4355436;81;28594;-78
2020/12/29 22:24:59;;;;;;;1.17;0.65;;;;;;;6.18;100.00;97776.80;4377591;80;28558;-79
2020/12/29 22:31:01;;;;;;;0.85;0.35;;;;;;;6.27;100.00;97769.23;4340547;81;28602;-79
2020/12/29 22:37:03;;;;;;;0.57;0.28;;;;;;;6.36;100.00;97777.17;4374614;81;28586;-77
2020/12/29 22:43:05;;;;;;;0.95;0.30;;;;;;;6.41;100.00;97777.80;4378545;81;28580;-77
2020/12/29 22:49:07;;;;;;;1.67;0.42;;;;;;;6.48;100.00;97776.33;4347266;81;28641;-78
2020/12/29 22:55:09;;;;;;;1.12;0.40;;;;;;;6.60;100.00;97736.26;4330133;81;28615;-79
2020/12/29 23:01:17;;;;;;;0.82;0.45;;;;;;;6.66;100.00;97738.78;4347549;80;28565;-79
2020/12/29 23:07:19;;;;;;;1.30;0.50;;;;;;;6.57;100.00;97759.44;4428598;80;28542;-80
2020/12/29 23:13:22;;;;;;;1.37;0.60;;;;;;;6.44;100.00;97767.98;4402493;80;28649;-79
2020/12/29 23:19:24;;;;;;;2.35;0.50;;;;;;;6.32;100.00;97764.02;4334018;81;28560;-78
2020/12/29 23:25:26;;;;;;;1.22;0.50;;;;;;;6.31;100.00;97757.56;4335588;81;28578;-78
2020/12/29 23:31:28;;;;;;;2.95;0.72;;;;;;;6.28;100.00;97761.50;4256399;80;28585;-79
2020/12/29 23:37:30;;;;;;;1.72;0.60;;;;;;;6.04;100.00;97753.53;4337585;80;28540;-77
2020/12/29 23:43:34;;;;;;;1.55;0.70;;;;;;;5.89;100.00;97744.64;4381778;80;28606;-77
2020/12/29 23:49:37;;;;;;;1.98;0.90;;;;;;;5.84;100.00;97746.66;4377394;81;28595;-79
2020/12/29 23:55:39;;;;;;;2.25;0.80;;;;;;;5.67;100.00;97746.55;4402136;80;28590;-79
